createdAt,value
2018-04-17T09:40:42.212Z,47.50
2018-04-17T09:43:11.760Z,48.00
2018-04-17T09:45:40.477Z,48.00
2018-04-17T09:48:09.945Z,50.40
2018-04-17T09:50:39.311Z,48.30
2018-04-17T09:53:08.830Z,48.90
2018-04-17T09:55:38.285Z,50.80
2018-04-17T09:58:08.092Z,53.00
2018-04-17T10:00:44.360Z,53.00
2018-04-17T10:03:13.102Z,53.00
2018-04-17T10:05:41.830Z,52.50
2018-04-17T10:08:11.244Z,52.10
2018-04-17T10:10:41.713Z,52.50
2018-04-17T10:13:10.445Z,52.60
2018-04-17T10:15:39.645Z,53.40
2018-04-17T10:18:09.697Z,53.60
2018-04-17T10:20:38.378Z,53.60
2018-04-17T10:23:07.997Z,50.10
2018-04-17T10:25:37.093Z,50.00
2018-04-17T10:28:05.834Z,48.20
2018-04-17T10:30:34.641Z,47.20
2018-04-17T10:33:03.417Z,48.10
2018-04-17T10:35:32.933Z,49.70
2018-04-17T10:38:01.713Z,49.60
2018-04-17T10:40:30.924Z,45.90
2018-04-17T12:33:50.248Z,52.00
2018-04-17T12:36:24.238Z,50.30
2018-04-17T12:38:54.245Z,49.40
2018-04-17T12:41:29.935Z,47.70
2018-04-17T12:44:05.245Z,48.10
2018-04-17T12:46:39.667Z,48.00
2018-04-17T12:49:15.029Z,48.60
2018-04-17T12:51:52.747Z,49.00
2018-04-17T12:54:28.249Z,49.40
2018-04-17T12:57:02.475Z,49.40
2018-04-17T12:59:36.253Z,48.50
2018-04-17T13:02:10.953Z,48.10
2018-04-17T13:04:44.330Z,48.00
2018-04-17T13:07:14.865Z,47.90
2018-04-17T13:09:46.582Z,49.10
2018-04-17T13:12:22.265Z,49.40
2018-04-17T13:15:00.059Z,49.30
2018-04-17T13:17:35.628Z,49.40
2018-04-17T13:20:05.412Z,50.60
2018-04-17T13:22:38.699Z,49.00
2018-04-17T13:25:13.608Z,48.60
2018-04-17T13:27:47.375Z,48.30
2018-04-17T13:30:21.355Z,49.50
2018-04-17T13:32:56.393Z,51.60
2018-04-17T13:35:31.057Z,50.80
2018-04-17T13:38:05.028Z,53.90
2018-04-17T13:40:35.814Z,48.70
2018-04-17T13:43:10.044Z,48.50
2018-04-17T13:55:14.423Z,52.90
2018-04-17T13:57:47.891Z,52.20
2018-04-17T14:00:17.639Z,52.00
2018-04-17T14:02:51.159Z,54.10
2018-04-17T14:05:25.144Z,53.20
2018-04-17T14:07:59.524Z,52.20
2018-04-17T14:10:33.256Z,51.30
2018-04-17T14:13:07.372Z,51.30
2018-04-17T14:15:42.128Z,53.10
2018-04-17T14:18:15.443Z,55.30
2018-04-17T14:20:45.158Z,53.80
2018-04-17T14:23:18.529Z,53.30
2018-04-17T14:25:51.085Z,51.40
2018-04-17T14:28:25.881Z,52.50
2018-04-17T14:31:00.639Z,52.50
2018-04-17T14:33:35.401Z,51.90
2018-04-17T14:36:10.669Z,52.50
2018-04-17T14:41:55.097Z,52.80
2018-04-17T14:44:29.583Z,52.20
2018-04-17T14:47:04.541Z,52.00
2018-04-17T14:49:34.356Z,52.00
2018-04-17T14:52:10.380Z,53.60
2018-04-17T14:54:45.221Z,53.60
2018-04-17T14:57:20.329Z,54.50
2018-04-17T14:59:56.105Z,58.00
2018-04-17T15:02:32.556Z,58.80
2018-04-17T15:05:02.090Z,58.80
2018-04-17T15:07:37.114Z,58.90
2018-04-17T15:10:11.994Z,56.90
2018-04-17T15:12:48.543Z,57.40
2018-04-17T15:15:22.529Z,56.80
2018-04-17T15:17:57.335Z,58.50
2018-04-17T15:20:32.598Z,61.20
2018-04-17T15:23:10.468Z,58.50
2018-04-17T15:25:45.273Z,57.00
2018-04-17T15:28:21.458Z,57.10
2018-04-17T15:30:55.168Z,57.90
2018-04-17T15:33:29.716Z,62.70
2018-04-17T15:36:03.134Z,63.80
2018-04-17T15:38:38.187Z,61.60
2018-04-17T15:41:12.713Z,58.70
2018-04-17T15:43:46.448Z,58.40
2018-04-17T15:46:15.966Z,57.30
2018-04-17T15:48:50.859Z,59.40
2018-04-17T15:51:35.552Z,58.80
2018-04-17T15:54:08.305Z,58.10
2018-04-17T15:56:42.474Z,58.40
